TimeCST,TemperatureF,Dew PointF,Humidity,Sea Level PressureIn,VisibilityMPH,Wind Direction,Wind SpeedMPH,Gust SpeedMPH,PrecipitationIn,Events,Conditions,WindDirDegrees,DateUTC
12:15 AM,39.4,30.7,71,29.76,10.0,WSW,10.4,-,N/A,,Clear,240,2013-02-04 06:15:00
12:35 AM,39.2,30.4,71,29.77,10.0,WSW,9.2,-,N/A,,Clear,240,2013-02-04 06:35:00
12:55 AM,39.0,30.6,72,29.77,10.0,WSW,11.5,-,N/A,,Clear,240,2013-02-04 06:55:00
1:15 AM,39.2,30.6,71,29.76,10.0,WSW,11.5,-,N/A,,Clear,250,2013-02-04 07:15:00
1:35 AM,39.2,30.7,72,29.76,10.0,West,11.5,-,N/A,,Clear,260,2013-02-04 07:35:00
1:55 AM,38.8,30.6,72,29.77,10.0,West,8.1,-,N/A,,Clear,270,2013-02-04 07:55:00
2:15 AM,38.5,30.2,72,29.78,10.0,NW,10.4,-,N/A,,Clear,310,2013-02-04 08:15:00
2:35 AM,39.2,29.7,69,29.78,10.0,NW,11.5,-,N/A,,Clear,310,2013-02-04 08:35:00
2:55 AM,38.5,29.3,70,29.79,10.0,NW,13.8,-,N/A,,Clear,320,2013-02-04 08:55:00
3:15 AM,37.8,29.1,71,29.80,10.0,NNW,13.8,20.7,N/A,,Clear,330,2013-02-04 09:15:00
4:55 AM,30.4,27.3,88,29.87,10.0,North,16.1,24.2,N/A,,Scattered Clouds,360,2013-02-04 10:55:00
5:15 AM,29.1,26.4,90,29.89,10.0,North,17.3,-,N/A,,Mostly Cloudy,350,2013-02-04 11:15:00
5:35 AM,28.2,25.3,89,29.90,10.0,North,18.4,23.0,N/A,,Overcast,350,2013-02-04 11:35:00
5:55 AM,26.8,23.5,88,29.92,10.0,North,24.2,29.9,N/A,,Overcast,350,2013-02-04 11:55:00
6:15 AM,25.9,23.4,90,29.93,10.0,North,18.4,-,N/A,,Overcast,360,2013-02-04 12:15:00
6:35 AM,24.8,21.9,89,29.94,10.0,North,23.0,27.6,N/A,,Overcast,360,2013-02-04 12:35:00
6:55 AM,24.3,21.6,89,29.94,10.0,North,-9999.0,-,N/A,,Overcast,0,2013-02-04 12:55:00
7:15 AM,24.1,21.4,89,29.96,10.0,North,20.7,-,N/A,,Overcast,360,2013-02-04 13:15:00
7:35 AM,24.4,21.7,89,29.96,10.0,North,16.1,27.6,N/A,,Overcast,360,2013-02-04 13:35:00
7:55 AM,24.4,21.7,89,29.97,10.0,North,18.4,21.9,N/A,,Overcast,360,2013-02-04 13:55:00
8:15 AM,24.8,22.1,89,29.97,10.0,North,15.0,20.7,N/A,,Overcast,350,2013-02-04 14:15:00
8:35 AM,25.0,22.3,89,29.98,10.0,North,11.5,-,N/A,,Overcast,350,2013-02-04 14:35:00
8:55 AM,25.2,22.1,88,29.99,10.0,North,12.7,-,N/A,,Overcast,350,2013-02-04 14:55:00
9:15 AM,25.2,21.9,87,30.00,10.0,North,12.7,-,N/A,,Overcast,360,2013-02-04 15:15:00
9:35 AM,25.2,22.1,88,30.00,10.0,NNW,11.5,-,N/A,,Overcast,340,2013-02-04 15:35:00
9:55 AM,25.7,22.3,87,30.02,10.0,North,11.5,-,N/A,,Overcast,350,2013-02-04 15:55:00
10:15 AM,25.5,21.9,86,30.02,10.0,North,13.8,-,N/A,,Overcast,360,2013-02-04 16:15:00
10:35 AM,25.7,21.9,86,30.02,10.0,NNW,10.4,-,N/A,,Overcast,340,2013-02-04 16:35:00
10:55 AM,25.7,21.9,86,30.03,10.0,North,9.2,-,N/A,,Overcast,360,2013-02-04 16:55:00
11:15 AM,26.1,21.9,84,30.03,10.0,North,10.4,-,N/A,,Overcast,350,2013-02-04 17:15:00
11:35 AM,25.5,21.0,83,30.03,10.0,North,10.4,-,N/A,,Overcast,10,2013-02-04 17:35:00
11:55 AM,25.7,21.6,84,30.02,10.0,North,9.2,-,N/A,,Overcast,360,2013-02-04 17:55:00
12:15 PM,25.7,21.6,84,30.02,10.0,North,8.1,-,N/A,,Overcast,10,2013-02-04 18:15:00
12:35 PM,25.7,21.2,83,30.00,10.0,North,10.4,-,N/A,,Overcast,360,2013-02-04 18:35:00
12:55 PM,25.7,21.0,82,30.00,10.0,North,5.8,-,N/A,,Overcast,10,2013-02-04 18:55:00
1:15 PM,25.9,21.2,82,30.00,10.0,North,6.9,-,N/A,,Overcast,10,2013-02-04 19:15:00
1:35 PM,25.7,20.7,81,30.00,10.0,North,5.8,-,N/A,,Overcast,350,2013-02-04 19:35:00
1:55 PM,26.1,21.0,81,30.00,10.0,North,6.9,-,N/A,,Overcast,350,2013-02-04 19:55:00
2:15 PM,25.9,20.8,81,29.99,10.0,North,3.5,-,N/A,,Overcast,10,2013-02-04 20:15:00
2:35 PM,25.7,21.0,82,29.98,10.0,North,3.5,-,N/A,,Overcast,10,2013-02-04 20:35:00
2:55 PM,26.1,21.0,81,29.98,10.0,NNW,3.5,-,N/A,,Overcast,340,2013-02-04 20:55:00
3:15 PM,26.1,21.0,81,29.98,10.0,Calm,Calm,-,N/A,,Overcast,0,2013-02-04 21:15:00
3:35 PM,26.2,20.8,80,29.98,10.0,Calm,Calm,-,N/A,,Overcast,0,2013-02-04 21:35:00
3:55 PM,26.4,20.8,79,29.97,10.0,Calm,Calm,-,N/A,,Overcast,0,2013-02-04 21:55:00
4:15 PM,26.4,21.0,80,29.96,10.0,Calm,Calm,-,N/A,,Overcast,0,2013-02-04 22:15:00
4:35 PM,26.2,21.0,81,29.95,10.0,Calm,Calm,-,N/A,,Overcast,0,2013-02-04 22:35:00
4:55 PM,26.4,21.0,80,29.95,10.0,Calm,Calm,-,N/A,,Overcast,0,2013-02-04 22:55:00
5:15 PM,26.2,21.2,81,29.94,10.0,Calm,Calm,-,N/A,,Overcast,0,2013-02-04 23:15:00
5:35 PM,26.2,21.2,81,29.93,10.0,Calm,Calm,-,N/A,,Overcast,0,2013-02-04 23:35:00
5:55 PM,26.1,21.6,83,29.94,10.0,SSW,3.5,-,N/A,,Overcast,200,2013-02-04 23:55:00
6:15 PM,25.9,21.6,84,29.93,10.0,Calm,Calm,-,N/A,,Overcast,0,2013-02-05 00:15:00
6:35 PM,26.1,21.7,84,29.94,10.0,South,3.5,-,N/A,,Overcast,170,2013-02-05 00:35:00
6:55 PM,26.4,22.3,84,29.95,10.0,SSW,5.8,-,N/A,,Overcast,210,2013-02-05 00:55:00
7:15 PM,26.4,22.1,84,29.95,10.0,SSW,4.6,-,N/A,,Overcast,200,2013-02-05 01:15:00
7:35 PM,26.6,22.5,84,29.94,10.0,SSW,8.1,-,N/A,,Overcast,200,2013-02-05 01:35:00
7:55 PM,26.6,22.6,85,29.93,10.0,South,10.4,-,N/A,,Overcast,180,2013-02-05 01:55:00
8:15 PM,26.6,22.8,86,29.92,10.0,South,12.7,-,N/A,,Overcast,180,2013-02-05 02:15:00
8:35 PM,26.6,23.0,86,29.91,10.0,South,11.5,-,N/A,,Overcast,170,2013-02-05 02:35:00
8:55 PM,26.6,23.0,86,29.89,10.0,SSE,10.4,-,N/A,,Overcast,160,2013-02-05 02:55:00
9:15 PM,27.1,23.7,87,29.89,10.0,South,10.4,-,N/A,,Overcast,170,2013-02-05 03:15:00
9:35 PM,27.3,23.9,87,29.90,10.0,South,10.4,-,N/A,,Overcast,170,2013-02-05 03:35:00
9:55 PM,27.5,24.1,87,29.89,10.0,South,11.5,-,N/A,,Overcast,180,2013-02-05 03:55:00
10:15 PM,27.5,24.4,88,29.89,10.0,South,10.4,-,N/A,,Overcast,170,2013-02-05 04:15:00
10:35 PM,27.5,24.6,89,29.89,7.0,South,9.2,-,N/A,,Overcast,180,2013-02-05 04:35:00
10:55 PM,27.5,24.6,89,29.88,10.0,South,11.5,-,N/A,,Overcast,180,2013-02-05 04:55:00
11:15 PM,27.5,24.8,90,29.87,10.0,South,9.2,-,N/A,,Overcast,180,2013-02-05 05:15:00
11:35 PM,27.5,24.8,90,29.87,10.0,South,5.8,-,N/A,,Overcast,190,2013-02-05 05:35:00
11:55 PM,27.7,25.0,90,29.87,10.0,SSW,8.1,-,N/A,,Overcast,200,2013-02-05 05:55:00